Time;durP1;ratioP1;P1;durP2;ratioP2;P2;SDS_P1;SDS_P2;PMS_P1;PMS_P2;Temp;Humidity;BMP_temperature;BMP_pressure;BME280_temperature;BME280_humidity;BME280_pressure;Samples;Min_cycle;Max_cycle;Signal;HPM_P1;HPM_P2
2022/02/16 00:02:08;;;;;;;16.85;8.32;;;7.40;99.90;;;;;;5053225;28;20404;-70
2022/02/16 00:04:35;;;;;;;16.85;7.35;;;7.40;99.90;;;;;;5052675;28;20047;-70
2022/02/16 00:07:01;;;;;;;17.75;7.53;;;7.50;99.90;;;;;;5041699;28;20057;-70
2022/02/16 00:09:26;;;;;;;17.15;7.60;;;7.50;99.90;;;;;;5046829;28;20036;-70
2022/02/16 00:11:52;;;;;;;17.55;7.80;;;7.50;99.90;;;;;;5066121;28;20045;-70
2022/02/16 00:14:18;;;;;;;15.27;7.25;;;7.40;99.90;;;;;;5044124;28;20049;-70
2022/02/16 00:16:44;;;;;;;16.77;7.97;;;7.40;99.90;;;;;;5042341;28;20073;-70
2022/02/16 00:19:09;;;;;;;18.80;9.05;;;7.40;99.90;;;;;;5058208;28;20056;-70
2022/02/16 00:21:35;;;;;;;19.05;8.82;;;7.40;99.90;;;;;;5076252;28;20179;-70
2022/02/16 00:24:01;;;;;;;16.77;9.18;;;7.40;99.90;;;;;;5050297;28;20095;-70
2022/02/16 00:26:27;;;;;;;17.90;8.35;;;7.50;99.90;;;;;;5065791;28;20499;-70
2022/02/16 00:28:52;;;;;;;21.15;9.07;;;7.30;99.90;;;;;;5041375;28;20124;-70
2022/02/16 00:31:18;;;;;;;17.73;8.68;;;7.40;99.90;;;;;;5045205;28;20060;-70
2022/02/16 00:33:44;;;;;;;22.77;9.02;;;7.40;99.90;;;;;;5085213;28;20127;-70
2022/02/16 00:36:10;;;;;;;22.65;8.18;;;7.40;99.90;;;;;;5069006;28;20049;-70
2022/02/16 00:38:35;;;;;;;21.88;8.85;;;7.40;99.90;;;;;;5070602;28;20045;-70
2022/02/16 00:41:01;;;;;;;22.67;8.15;;;7.30;99.90;;;;;;5049249;28;20045;-70
2022/02/16 00:43:27;;;;;;;20.70;7.63;;;7.20;99.90;;;;;;5052667;28;20538;-70
2022/02/16 00:45:52;;;;;;;15.65;7.15;;;7.30;99.90;;;;;;5025526;28;20092;-70
2022/02/16 00:48:18;;;;;;;21.17;7.38;;;7.40;99.90;;;;;;5062703;28;20080;-70
2022/02/16 00:50:44;;;;;;;15.48;7.13;;;7.40;99.90;;;;;;5060680;28;20132;-70
2022/02/16 00:53:09;;;;;;;16.25;6.80;;;7.30;99.90;;;;;;5063545;28;20041;-70
2022/02/16 00:55:35;;;;;;;20.50;7.13;;;7.30;99.90;;;;;;5043754;28;20047;-70
2022/02/16 00:58:05;;;;;;;15.30;6.75;;;7.40;99.90;;;;;;5035722;28;20045;-70
2022/02/16 01:00:32;;;;;;;19.95;6.18;;;7.50;99.90;;;;;;5062483;28;20053;-70
2022/02/16 01:02:58;;;;;;;17.75;6.63;;;7.40;99.90;;;;;;5044757;28;20053;-70
2022/02/16 01:05:24;;;;;;;22.15;6.80;;;7.50;99.90;;;;;;5043930;28;20041;-70
2022/02/16 01:07:49;;;;;;;19.73;6.57;;;7.50;99.90;;;;;;5040602;28;20076;-70
2022/02/16 01:10:16;;;;;;;15.63;5.80;;;7.40;99.90;;;;;;5037331;28;20119;-70
2022/02/16 01:12:41;;;;;;;16.15;5.70;;;7.50;99.90;;;;;;5044686;28;20049;-70
2022/02/16 01:15:07;;;;;;;18.20;6.32;;;7.60;99.90;;;;;;5045991;28;20098;-70
2022/02/16 01:17:33;;;;;;;18.98;6.97;;;7.50;99.90;;;;;;5070804;28;20103;-70
2022/02/16 01:19:59;;;;;;;21.25;6.80;;;7.50;99.90;;;;;;5066168;28;20041;-70
2022/02/16 01:22:25;;;;;;;16.98;6.10;;;7.50;99.90;;;;;;5081006;28;20086;-70
2022/02/16 01:24:51;;;;;;;15.68;5.97;;;7.30;99.90;;;;;;5046797;28;20037;-70
2022/02/16 01:27:16;;;;;;;24.35;7.43;;;7.30;99.90;;;;;;5048383;28;20045;-70
2022/02/16 01:29:42;;;;;;;18.23;6.40;;;7.40;99.90;;;;;;5015108;28;20137;-70
2022/02/16 01:32:08;;;;;;;21.08;5.30;;;7.40;99.90;;;;;;5069343;28;20059;-70
2022/02/16 01:34:34;;;;;;;21.65;6.50;;;7.40;99.90;;;;;;5064340;28;20053;-70
2022/02/16 01:37:00;;;;;;;17.83;6.40;;;7.30;99.90;;;;;;5067638;28;20047;-70
2022/02/16 01:39:25;;;;;;;16.30;6.38;;;7.30;99.90;;;;;;5047307;28;20090;-70
2022/02/16 01:41:53;;;;;;;21.60;7.90;;;7.30;99.90;;;;;;5047956;28;20052;-70
2022/02/16 01:44:22;;;;;;;15.40;7.30;;;7.40;99.90;;;;;;5047330;28;20057;-70
2022/02/16 01:46:59;;;;;;;15.27;6.15;;;7.40;99.90;;;;;;5041528;28;20109;-70
2022/02/16 01:49:24;;;;;;;16.65;7.05;;;7.40;99.90;;;;;;5046524;28;20078;-70
2022/02/16 01:51:50;;;;;;;16.45;6.38;;;7.40;99.90;;;;;;5048577;28;20123;-70
2022/02/16 01:54:16;;;;;;;16.17;7.68;;;7.50;99.90;;;;;;5081844;28;20057;-70
2022/02/16 01:56:45;;;;;;;20.02;7.85;;;7.40;99.90;;;;;;5047694;28;20048;-70
2022/02/16 01:59:12;;;;;;;17.85;7.72;;;7.50;99.90;;;;;;5049458;28;20520;-70
2022/02/16 02:01:39;;;;;;;22.05;8.50;;;7.50;99.90;;;;;;5048472;28;20086;-70
2022/02/16 02:04:05;;;;;;;17.42;8.30;;;7.60;99.90;;;;;;5050450;28;20089;-70
2022/02/16 02:06:31;;;;;;;15.40;7.82;;;7.70;99.90;;;;;;5047918;28;20492;-70
2022/02/16 02:08:56;;;;;;;18.35;8.90;;;7.70;99.90;;;;;;5046683;28;20129;-70
2022/02/16 02:11:22;;;;;;;20.63;9.50;;;7.70;99.90;;;;;;5047479;28;20048;-70
2022/02/16 02:13:59;;;;;;;16.98;8.88;;;7.80;99.90;;;;;;5067296;28;20055;-70
2022/02/16 02:16:24;;;;;;;20.05;9.88;;;7.70;99.90;;;;;;5046264;28;20107;-70
2022/02/16 02:18:50;;;;;;;19.23;10.70;;;7.80;99.90;;;;;;5048321;28;20044;-70
2022/02/16 02:21:20;;;;;;;19.77;9.65;;;7.60;99.90;;;;;;5011989;28;20041;-70
2022/02/16 02:23:46;;;;;;;21.55;11.80;;;7.70;99.90;;;;;;5063434;28;20052;-70
2022/02/16 02:26:13;;;;;;;21.00;11.10;;;7.80;99.90;;;;;;5053504;28;20033;-70
2022/02/16 02:28:39;;;;;;;19.30;11.07;;;7.80;99.90;;;;;;5045867;28;20108;-70
2022/02/16 02:31:05;;;;;;;22.88;13.20;;;7.90;99.90;;;;;;5048206;28;20041;-70
2022/02/16 02:33:31;;;;;;;17.13;11.45;;;7.90;99.90;;;;;;5042233;28;20048;-70
2022/02/16 02:35:56;;;;;;;20.70;12.77;;;7.80;99.90;;;;;;5079528;28;20037;-70
2022/02/16 02:38:22;;;;;;;17.50;13.32;;;7.80;99.90;;;;;;5031602;28;20060;-70
2022/02/16 02:40:53;;;;;;;21.63;14.30;;;8.00;99.90;;;;;;5068582;28;20058;-70
2022/02/16 02:43:20;;;;;;;22.98;14.73;;;8.00;99.90;;;;;;5047701;28;20056;-70
2022/02/16 02:45:47;;;;;;;21.17;16.10;;;8.00;99.90;;;;;;5047228;28;20080;-70
2022/02/16 02:48:12;;;;;;;19.40;16.42;;;8.00;99.90;;;;;;5017283;28;20500;-70
2022/02/16 02:50:38;;;;;;;22.17;15.23;;;8.00;99.90;;;;;;5049395;28;20052;-70
2022/02/16 02:53:04;;;;;;;24.73;17.13;;;8.20;99.90;;;;;;5048085;28;20113;-70
2022/02/16 02:55:30;;;;;;;23.35;17.42;;;8.20;99.90;;;;;;5047415;28;20052;-70
2022/02/16 02:57:56;;;;;;;21.00;16.35;;;8.10;99.90;;;;;;5045611;28;20052;-70
2022/02/16 03:00:22;;;;;;;27.73;18.17;;;8.30;99.90;;;;;;5064059;28;20040;-70
2022/02/16 03:02:47;;;;;;;26.10;18.50;;;8.10;99.90;;;;;;5052660;28;20041;-70
2022/02/16 03:05:13;;;;;;;25.45;18.08;;;8.10;99.90;;;;;;5051467;28;20045;-70
2022/02/16 03:07:40;;;;;;;26.55;16.65;;;8.00;99.90;;;;;;5042408;28;20106;-70
2022/02/16 03:10:06;;;;;;;27.10;18.90;;;8.00;99.90;;;;;;5065641;28;20047;-70
2022/02/16 03:12:32;;;;;;;28.63;20.10;;;8.10;99.90;;;;;;5047719;28;20041;-70
2022/02/16 03:14:57;;;;;;;26.70;18.17;;;8.00;99.90;;;;;;5065482;28;20048;-70
2022/02/16 03:17:25;;;;;;;29.88;20.08;;;8.10;99.90;;;;;;5049237;28;20080;-70
2022/02/16 03:19:51;;;;;;;26.60;18.15;;;8.10;99.90;;;;;;5031982;28;20041;-70
2022/02/16 03:22:16;;;;;;;26.17;19.23;;;8.10;99.90;;;;;;5064482;28;20041;-70
2022/02/16 03:24:42;;;;;;;25.95;19.13;;;8.20;99.90;;;;;;5047008;28;20048;-70
2022/02/16 03:27:08;;;;;;;26.33;19.27;;;8.10;99.90;;;;;;5043547;28;20049;-70
2022/02/16 03:29:33;;;;;;;24.65;18.20;;;8.10;99.90;;;;;;5046280;28;20052;-70
2022/02/16 03:31:59;;;;;;;24.80;17.40;;;8.30;99.90;;;;;;5045972;28;20045;-70
2022/02/16 03:34:25;;;;;;;21.75;16.58;;;8.00;99.90;;;;;;5064454;28;20143;-70
2022/02/16 03:36:51;;;;;;;24.75;17.20;;;8.20;99.90;;;;;;5046037;28;20045;-70
2022/02/16 03:39:16;;;;;;;23.65;16.50;;;8.10;99.90;;;;;;5064490;28;20053;-69
2022/02/16 03:41:42;;;;;;;22.52;15.82;;;8.20;99.90;;;;;;5067338;28;20072;-70
2022/02/16 03:44:08;;;;;;;21.15;14.63;;;8.20;99.90;;;;;;5064907;28;20500;-70
2022/02/16 03:46:34;;;;;;;23.05;16.85;;;8.40;99.90;;;;;;5045800;28;20045;-70
2022/02/16 03:48:59;;;;;;;20.83;15.68;;;8.30;99.90;;;;;;5047105;28;20077;-70
2022/02/16 03:51:25;;;;;;;20.77;15.18;;;8.20;99.90;;;;;;5046897;28;20041;-70
2022/02/16 03:53:51;;;;;;;21.75;15.77;;;8.20;99.90;;;;;;5061316;28;20053;-70
2022/02/16 03:56:17;;;;;;;20.23;14.88;;;8.30;99.90;;;;;;5064113;28;20045;-70
2022/02/16 03:58:42;;;;;;;20.98;14.77;;;8.40;99.90;;;;;;5062995;28;20465;-70
2022/02/16 04:01:08;;;;;;;22.30;15.48;;;8.30;99.90;;;;;;5028964;28;20037;-70
2022/02/16 04:03:33;;;;;;;20.73;13.90;;;8.10;99.90;;;;;;5045277;28;20104;-70
2022/02/16 04:05:59;;;;;;;18.13;13.00;;;8.50;99.90;;;;;;5057076;28;20060;-70
2022/02/16 04:08:25;;;;;;;16.17;11.57;;;8.60;99.90;;;;;;5065822;28;20056;-70
2022/02/16 04:10:51;;;;;;;12.73;8.60;;;8.70;99.90;;;;;;5045848;28;20121;-70
2022/02/16 04:13:16;;;;;;;15.93;11.73;;;8.90;99.90;;;;;;5058262;28;20049;-70
2022/02/16 04:15:42;;;;;;;15.57;12.20;;;8.80;99.90;;;;;;5079347;28;20055;-70
2022/02/16 04:18:08;;;;;;;15.35;11.18;;;8.70;99.90;;;;;;5063535;28;20094;-70
2022/02/16 04:20:33;;;;;;;14.07;11.82;;;8.70;99.90;;;;;;5046073;28;20045;-70
2022/02/16 04:22:59;;;;;;;17.17;12.30;;;8.70;99.90;;;;;;5043648;28;20108;-70
2022/02/16 04:25:25;;;;;;;14.40;10.98;;;8.50;99.90;;;;;;5048527;28;20124;-70
2022/02/16 04:27:51;;;;;;;16.80;10.43;;;8.60;99.90;;;;;;5047712;28;20048;-70
2022/02/16 04:30:17;;;;;;;13.80;10.20;;;8.60;99.90;;;;;;5046067;28;20049;-70
2022/02/16 04:32:43;;;;;;;14.60;10.60;;;8.60;99.90;;;;;;5045662;28;20072;-70
2022/02/16 04:35:09;;;;;;;13.38;10.52;;;8.50;99.90;;;;;;5059774;28;20048;-70
2022/02/16 04:37:35;;;;;;;15.55;10.10;;;8.40;99.90;;;;;;5045978;28;20087;-70
2022/02/16 04:40:01;;;;;;;15.50;10.25;;;8.40;99.90;;;;;;5046821;28;20484;-70
2022/02/16 04:42:26;;;;;;;14.23;9.40;;;8.30;99.90;;;;;;5045807;28;20056;-70
2022/02/16 04:44:52;;;;;;;15.77;9.48;;;8.30;99.90;;;;;;5025762;28;20159;-70
2022/02/16 04:47:19;;;;;;;12.45;8.55;;;8.20;99.90;;;;;;5042886;28;20053;-70
2022/02/16 04:49:44;;;;;;;17.25;9.90;;;8.30;99.90;;;;;;5046688;28;20448;-70
2022/02/16 04:52:10;;;;;;;12.50;8.68;;;8.10;99.90;;;;;;5066864;28;20045;-70
2022/02/16 04:54:36;;;;;;;14.63;8.50;;;8.10;99.90;;;;;;5047247;28;20071;-70
2022/02/16 04:57:02;;;;;;;12.88;9.50;;;8.30;99.90;;;;;;5083798;28;20075;-70
2022/02/16 04:59:28;;;;;;;12.60;8.20;;;8.20;99.90;;;;;;5067612;28;20041;-70
2022/02/16 05:01:53;;;;;;;11.68;8.63;;;8.20;99.90;;;;;;5053310;28;20141;-70
2022/02/16 05:04:19;;;;;;;12.48;7.80;;;8.40;99.90;;;;;;5052958;28;20049;-70
2022/02/16 05:06:45;;;;;;;10.60;7.85;;;8.40;99.90;;;;;;5064068;28;20076;-70
2022/02/16 05:09:11;;;;;;;12.35;8.85;;;8.30;99.90;;;;;;5067473;28;20041;-70
2022/02/16 05:11:37;;;;;;;14.55;9.82;;;8.20;99.90;;;;;;5049269;28;20100;-70
2022/02/16 05:14:03;;;;;;;12.82;8.07;;;8.40;99.90;;;;;;5046264;28;20087;-70
2022/02/16 05:16:29;;;;;;;12.55;9.25;;;8.40;99.90;;;;;;5049676;28;20535;-70
2022/02/16 05:18:55;;;;;;;13.32;8.75;;;8.40;99.90;;;;;;5053469;28;20049;-70
2022/02/16 05:21:22;;;;;;;14.95;9.52;;;8.60;99.90;;;;;;5052396;28;20052;-70
2022/02/16 05:23:48;;;;;;;15.05;9.15;;;8.30;99.90;;;;;;5049990;28;20049;-70
2022/02/16 05:26:14;;;;;;;14.50;9.90;;;8.40;99.90;;;;;;5051187;28;20130;-70
2022/02/16 05:28:40;;;;;;;13.60;9.27;;;8.40;99.90;;;;;;5045468;28;20052;-70
2022/02/16 05:31:06;;;;;;;12.73;9.35;;;8.40;99.90;;;;;;5056822;28;20104;-70
2022/02/16 05:33:32;;;;;;;15.32;9.90;;;8.60;99.90;;;;;;5067633;28;20037;-70
2022/02/16 05:35:58;;;;;;;14.02;11.23;;;8.50;99.90;;;;;;5049436;28;20056;-70
2022/02/16 05:38:24;;;;;;;15.77;10.13;;;8.50;99.90;;;;;;5044525;28;20076;-70
2022/02/16 05:40:49;;;;;;;14.13;10.20;;;8.60;99.90;;;;;;5069456;28;20043;-70
2022/02/16 05:43:17;;;;;;;15.25;11.27;;;8.50;99.90;;;;;;5065303;28;20547;-70
2022/02/16 05:45:44;;;;;;;14.73;11.60;;;8.50;99.90;;;;;;5082975;28;20048;-70
2022/02/16 05:48:10;;;;;;;16.75;11.55;;;8.50;99.90;;;;;;5069422;28;20045;-70
2022/02/16 05:50:37;;;;;;;15.88;11.60;;;8.50;99.90;;;;;;5075281;28;20045;-70
2022/02/16 05:53:04;;;;;;;15.10;12.18;;;8.60;99.90;;;;;;5069076;28;20052;-70
2022/02/16 05:55:29;;;;;;;16.77;11.90;;;8.70;99.90;;;;;;5070158;28;20049;-70
2022/02/16 05:57:55;;;;;;;16.17;12.38;;;8.50;99.90;;;;;;5072463;28;20056;-70
2022/02/16 06:00:21;;;;;;;16.27;12.05;;;8.70;99.90;;;;;;5085678;28;20051;-70
2022/02/16 06:02:47;;;;;;;15.15;11.55;;;8.60;99.90;;;;;;5093585;28;20051;-75
2022/02/16 06:05:12;;;;;;;15.35;11.88;;;8.60;99.90;;;;;;5065936;28;20436;-70
2022/02/16 06:07:38;;;;;;;14.93;12.15;;;8.70;99.90;;;;;;5064260;28;20397;-70
2022/02/16 06:10:04;;;;;;;17.38;12.88;;;8.60;99.90;;;;;;5099587;28;20091;-70
2022/02/16 06:12:30;;;;;;;16.60;12.55;;;8.60;99.90;;;;;;5075269;28;20110;-71
2022/02/16 06:14:56;;;;;;;16.10;11.40;;;8.70;99.90;;;;;;5037359;28;20099;-69
2022/02/16 06:17:22;;;;;;;15.80;12.25;;;8.70;99.90;;;;;;5067343;28;20071;-70
2022/02/16 06:19:47;;;;;;;14.55;11.38;;;8.60;99.90;;;;;;5068861;28;20044;-70
2022/02/16 06:22:13;;;;;;;15.80;11.35;;;8.70;99.90;;;;;;5074977;28;21024;-70
2022/02/16 06:24:39;;;;;;;12.00;8.13;;;8.70;99.90;;;;;;5061654;28;20455;-71
2022/02/16 06:27:04;;;;;;;13.35;10.35;;;8.90;99.90;;;;;;5061309;28;20463;-70
2022/02/16 06:29:30;;;;;;;13.82;10.52;;;8.80;99.90;;;;;;5060179;28;20085;-71
2022/02/16 06:31:55;;;;;;;9.52;7.88;;;8.80;99.90;;;;;;5074362;28;20047;-70
2022/02/16 06:34:21;;;;;;;10.73;8.15;;;8.80;99.90;;;;;;5055776;28;20048;-70
2022/02/16 06:36:47;;;;;;;12.07;8.82;;;9.00;99.90;;;;;;5062481;28;20045;-70
2022/02/16 06:39:13;;;;;;;10.27;8.30;;;8.90;99.90;;;;;;5060579;28;20151;-71
2022/02/16 06:41:39;;;;;;;9.90;8.05;;;9.00;99.90;;;;;;5060708;28;20055;-71
2022/02/16 06:44:04;;;;;;;9.82;7.60;;;8.80;99.90;;;;;;5061799;28;20045;-72
2022/02/16 06:46:31;;;;;;;8.05;6.85;;;8.90;99.90;;;;;;5048977;28;20283;-72
2022/02/16 06:48:57;;;;;;;8.20;6.88;;;8.90;99.90;;;;;;5036346;28;20048;-72
2022/02/16 06:51:23;;;;;;;8.07;6.40;;;8.70;99.90;;;;;;5078422;28;20079;-70
2022/02/16 06:53:55;;;;;;;7.22;6.10;;;8.80;99.90;;;;;;5058978;28;20107;-70
2022/02/16 06:56:22;;;;;;;7.40;6.30;;;8.80;99.90;;;;;;5030297;28;20065;-71
2022/02/16 06:58:48;;;;;;;6.93;5.38;;;8.90;99.90;;;;;;5069411;28;20114;-72
2022/02/16 07:01:14;;;;;;;7.13;5.72;;;8.90;99.90;;;;;;5064180;28;20052;-71
2022/02/16 07:03:39;;;;;;;6.32;5.32;;;8.90;99.90;;;;;;5069063;28;20060;-70
2022/02/16 07:06:05;;;;;;;6.88;5.53;;;8.90;99.90;;;;;;5065637;28;20055;-71
2022/02/16 07:08:31;;;;;;;6.70;5.28;;;8.80;99.90;;;;;;5076027;28;20272;-71
2022/02/16 07:10:56;;;;;;;7.82;5.50;;;8.80;99.90;;;;;;5050711;28;20076;-70
2022/02/16 07:13:22;;;;;;;7.00;5.32;;;8.90;99.90;;;;;;5056887;28;20040;-73
2022/02/16 07:15:48;;;;;;;7.68;5.20;;;9.00;99.90;;;;;;5055867;28;20201;-69
2022/02/16 07:18:14;;;;;;;7.20;5.32;;;9.10;99.90;;;;;;5074554;28;20170;-70
2022/02/16 07:20:40;;;;;;;6.65;5.30;;;9.10;99.90;;;;;;5048128;28;20121;-70
2022/02/16 07:23:06;;;;;;;7.43;5.45;;;9.00;99.90;;;;;;5058096;28;20080;-70
2022/02/16 07:25:32;;;;;;;6.03;4.07;;;9.00;99.90;;;;;;5020499;28;20048;-70
2022/02/16 07:27:57;;;;;;;6.80;5.28;;;9.00;99.90;;;;;;5088837;28;20048;-70
2022/02/16 07:30:23;;;;;;;6.65;5.13;;;9.00;99.90;;;;;;5065309;28;20143;-70
2022/02/16 07:32:49;;;;;;;6.97;5.10;;;9.10;99.90;;;;;;5075026;28;20037;-70
2022/02/16 07:35:15;;;;;;;6.93;5.13;;;9.10;99.90;;;;;;5045674;28;20124;-67
2022/02/16 07:37:42;;;;;;;6.15;5.30;;;8.90;99.90;;;;;;5059100;28;20044;-68
2022/02/16 07:40:09;;;;;;;6.82;5.10;;;9.00;99.90;;;;;;5044777;28;20060;-73
2022/02/16 07:42:35;;;;;;;5.20;3.72;;;9.10;99.90;;;;;;5034559;28;20121;-67
2022/02/16 07:45:04;;;;;;;6.43;5.15;;;9.20;99.90;;;;;;5045952;28;20144;-67
2022/02/16 07:47:30;;;;;;;5.75;4.32;;;9.20;99.90;;;;;;5079648;28;20299;-67
2022/02/16 07:49:56;;;;;;;5.30;4.53;;;9.10;99.90;;;;;;5079098;28;20249;-70
2022/02/16 07:52:22;;;;;;;4.70;3.75;;;9.30;99.90;;;;;;5068802;28;20136;-67
2022/02/16 07:54:48;;;;;;;6.22;4.38;;;9.40;99.90;;;;;;5074418;28;20467;-67
2022/02/16 07:57:13;;;;;;;3.97;2.97;;;9.20;99.90;;;;;;5066609;28;20055;-67
2022/02/16 07:59:39;;;;;;;4.40;3.47;;;9.40;99.90;;;;;;5070639;28;20036;-67
2022/02/16 08:02:05;;;;;;;4.88;3.90;;;9.20;99.90;;;;;;5072520;28;20052;-67
2022/02/16 08:04:31;;;;;;;4.05;3.33;;;9.30;99.90;;;;;;5031402;28;20063;-67
2022/02/16 08:07:00;;;;;;;4.20;3.15;;;9.40;99.90;;;;;;5048241;28;20047;-67
2022/02/16 08:09:26;;;;;;;3.63;2.60;;;9.40;99.90;;;;;;5052864;28;20044;-67
2022/02/16 08:11:51;;;;;;;4.28;3.00;;;9.40;99.90;;;;;;5074536;28;20051;-67
2022/02/16 08:14:17;;;;;;;4.75;2.80;;;9.40;99.90;;;;;;5052905;28;20044;-67
2022/02/16 08:16:43;;;;;;;3.78;2.90;;;9.40;99.90;;;;;;5072322;28;20043;-67
2022/02/16 08:19:10;;;;;;;3.20;2.35;;;9.50;99.90;;;;;;5075476;28;20056;-67
2022/02/16 08:21:37;;;;;;;3.67;2.42;;;9.60;99.90;;;;;;5047062;28;20115;-67
2022/02/16 08:24:04;;;;;;;2.55;2.10;;;9.60;99.90;;;;;;5065704;28;20120;-67
2022/02/16 08:26:30;;;;;;;3.80;2.90;;;9.50;99.90;;;;;;5032606;28;20072;-67
2022/02/16 08:28:56;;;;;;;3.45;2.70;;;9.60;99.90;;;;;;5055942;28;20064;-66
2022/02/16 08:31:22;;;;;;;5.18;2.65;;;9.50;99.90;;;;;;5052899;28;20052;-67
2022/02/16 08:33:48;;;;;;;3.60;2.70;;;9.70;99.90;;;;;;5057950;28;20086;-67
2022/02/16 08:36:14;;;;;;;3.60;2.53;;;9.70;99.90;;;;;;5047599;28;20272;-67
2022/02/16 08:38:41;;;;;;;3.10;2.20;;;9.50;99.90;;;;;;5046398;28;20036;-67
2022/02/16 08:41:07;;;;;;;3.53;2.83;;;9.60;99.90;;;;;;5050381;28;20492;-67
2022/02/16 08:43:33;;;;;;;3.70;2.85;;;9.60;99.90;;;;;;5077070;28;20074;-67
2022/02/16 08:45:59;;;;;;;3.60;2.42;;;9.50;99.90;;;;;;5023042;28;20048;-67
2022/02/16 08:48:26;;;;;;;4.28;2.58;;;9.80;99.90;;;;;;5036459;28;20136;-67
2022/02/16 08:50:52;;;;;;;3.20;2.50;;;9.70;99.90;;;;;;5026878;28;20053;-67
2022/02/16 08:53:19;;;;;;;2.75;2.00;;;9.70;99.90;;;;;;5037542;28;20057;-67
2022/02/16 08:55:45;;;;;;;2.72;2.35;;;9.70;99.90;;;;;;5027704;28;20114;-67
2022/02/16 08:58:12;;;;;;;2.85;2.28;;;9.70;99.90;;;;;;5052823;28;20053;-67
2022/02/16 09:00:38;;;;;;;3.38;1.90;;;9.80;99.90;;;;;;5038774;28;20091;-67
2022/02/16 09:03:04;;;;;;;3.20;2.35;;;9.90;99.90;;;;;;5049293;28;20059;-66
2022/02/16 09:05:30;;;;;;;3.22;2.60;;;10.00;99.90;;;;;;5037891;28;20314;-66
2022/02/16 09:07:56;;;;;;;3.28;2.97;;;10.00;99.90;;;;;;5046880;28;20071;-67
2022/02/16 09:10:22;;;;;;;3.22;2.70;;;9.80;99.90;;;;;;5030766;28;20048;-67
2022/02/16 09:12:47;;;;;;;2.88;2.45;;;9.90;99.90;;;;;;5057931;28;20059;-67
2022/02/16 09:15:13;;;;;;;3.63;2.67;;;9.90;99.90;;;;;;5030515;28;20127;-67
2022/02/16 09:17:39;;;;;;;3.10;2.78;;;10.00;99.90;;;;;;5046490;28;20114;-67
2022/02/16 09:20:06;;;;;;;2.80;2.50;;;10.00;99.90;;;;;;5034615;28;20077;-67
2022/02/16 09:22:34;;;;;;;2.95;2.65;;;10.20;99.90;;;;;;5040449;28;20052;-67
2022/02/16 09:24:59;;;;;;;3.97;2.90;;;10.10;99.90;;;;;;5034725;28;20137;-67
2022/02/16 09:27:25;;;;;;;3.00;2.70;;;10.20;99.90;;;;;;5046168;28;20068;-67
2022/02/16 09:29:52;;;;;;;3.30;3.00;;;10.20;99.90;;;;;;5042016;28;20044;-67
2022/02/16 09:32:18;;;;;;;3.45;2.90;;;10.30;99.90;;;;;;5063320;28;20471;-67
2022/02/16 09:34:45;;;;;;;4.45;3.78;;;10.20;99.90;;;;;;5037367;28;20061;-67
2022/02/16 09:37:11;;;;;;;4.90;3.80;;;10.30;99.90;;;;;;5030059;28;20048;-67
2022/02/16 09:39:38;;;;;;;4.75;4.35;;;10.20;99.90;;;;;;5052700;28;20037;-68
2022/02/16 09:42:04;;;;;;;5.38;4.00;;;10.20;99.90;;;;;;5055622;28;20464;-67
2022/02/16 09:45:04;;;;;;;6.25;4.75;;;10.20;99.90;;;;;;5036613;28;20108;-68
2022/02/16 09:47:33;;;;;;;6.55;5.18;;;10.40;99.90;;;;;;5050170;28;20061;-67
2022/02/16 09:50:01;;;;;;;7.65;5.50;;;10.40;99.90;;;;;;5036947;28;20059;-68
2022/02/16 09:52:27;;;;;;;6.57;5.40;;;10.40;99.90;;;;;;5034043;28;20100;-68
2022/02/16 09:54:53;;;;;;;7.63;5.90;;;10.50;99.90;;;;;;5015621;28;20049;-68
2022/02/16 09:57:20;;;;;;;9.10;5.47;;;10.60;99.90;;;;;;5032620;28;20122;-68
2022/02/16 09:59:46;;;;;;;9.88;5.53;;;10.80;99.90;;;;;;5019813;28;20041;-68
2022/02/16 10:02:15;;;;;;;11.00;5.40;;;10.80;99.90;;;;;;5040825;28;20041;-67
2022/02/16 10:04:56;;;;;;;10.82;5.20;;;10.70;99.90;;;;;;5007905;28;20075;-68
2022/02/16 10:07:23;;;;;;;9.10;5.13;;;11.00;99.90;;;;;;5031246;28;20073;-67
2022/02/16 10:09:50;;;;;;;9.40;5.07;;;11.00;99.90;;;;;;5017622;28;20065;-68
2022/02/16 10:12:15;;;;;;;7.38;4.63;;;10.90;99.90;;;;;;5037094;28;20042;-68
2022/02/16 10:14:41;;;;;;;9.80;4.38;;;11.00;99.90;;;;;;5033216;28;20095;-70
2022/02/16 10:17:27;;;;;;;8.05;4.03;;;11.10;99.90;;;;;;5042080;28;20060;-69
2022/02/16 10:20:05;;;;;;;11.57;4.30;;;11.20;99.90;;;;;;5012475;28;20042;-67
2022/02/16 10:22:45;;;;;;;10.52;3.58;;;11.10;99.90;;;;;;5038602;28;20044;-69
2022/02/16 10:25:19;;;;;;;;;;;11.20;99.90;;;;;;5057378;28;20041;-69
2022/02/16 10:28:09;;;;;;;7.85;3.45;;;11.40;99.90;;;;;;5080451;28;19926;-69
2022/02/16 10:30:53;;;;;;;9.05;3.30;;;11.60;99.90;;;;;;5066985;28;20057;-69
2022/02/16 10:33:30;;;;;;;8.70;3.72;;;11.50;99.90;;;;;;5062756;28;20052;-69
2022/02/16 10:36:09;;;;;;;10.27;3.17;;;11.60;99.90;;;;;;5041206;28;20123;-73
2022/02/16 10:38:53;;;;;;;10.98;4.50;;;11.80;99.90;;;;;;5072360;28;20048;-67
2022/02/16 10:41:24;;;;;;;9.18;2.42;;;11.70;99.90;;;;;;5046286;28;20055;-69
2022/02/16 10:43:52;;;;;;;12.05;2.40;;;11.80;99.90;;;;;;5065299;28;20036;-69
2022/02/16 10:46:21;;;;;;;10.43;2.75;;;11.80;99.90;;;;;;5064491;28;20051;-69
2022/02/16 10:49:06;;;;;;;15.65;4.68;;;11.90;99.90;;;;;;5067946;28;20044;-68
2022/02/16 10:51:33;;;;;;;11.98;2.80;;;11.80;99.90;;;;;;5048930;28;20080;-70
2022/02/16 10:54:21;;;;;;;10.48;2.75;;;12.00;99.90;;;;;;5063144;28;20068;-69
2022/02/16 10:56:49;;;;;;;15.48;2.97;;;12.00;99.90;;;;;;5062639;28;20594;-69
2022/02/16 10:59:16;;;;;;;14.35;3.67;;;12.00;99.90;;;;;;5060536;28;20109;-77
2022/02/16 11:01:42;;;;;;;9.88;3.15;;;12.10;99.90;;;;;;5044931;28;20066;-68
2022/02/16 11:04:11;;;;;;;10.63;2.45;;;12.10;99.90;;;;;;5057810;28;20124;-69
2022/02/16 11:06:42;;;;;;;15.65;2.80;;;12.00;99.90;;;;;;5060542;28;20052;-67
2022/02/16 11:09:20;;;;;;;12.80;3.20;;;12.20;99.90;;;;;;5068068;28;20104;-67
2022/02/16 11:11:47;;;;;;;14.82;3.08;;;12.10;99.90;;;;;;5062482;28;20048;-67
2022/02/16 11:14:13;;;;;;;13.35;2.47;;;12.10;99.90;;;;;;5073510;28;20037;-67
2022/02/16 11:16:41;;;;;;;11.15;2.22;;;12.20;99.90;;;;;;5078209;28;20048;-67
2022/02/16 11:19:39;;;;;;;16.25;3.40;;;12.20;99.90;;;;;;5060982;28;20048;-67
2022/02/16 11:22:09;;;;;;;13.15;2.40;;;12.10;99.90;;;;;;5022350;28;20049;-67
2022/02/16 11:24:36;;;;;;;10.88;2.65;;;12.20;99.90;;;;;;5030061;28;20260;-67
2022/02/16 11:27:29;;;;;;;10.90;2.30;;;12.20;99.90;;;;;;5039797;28;20056;-67
2022/02/16 11:29:59;;;;;;;9.10;2.40;;;12.30;99.90;;;;;;5026723;28;20119;-67
2022/02/16 11:32:36;;;;;;;11.20;2.20;;;12.30;99.90;;;;;;4999728;28;20069;-66
2022/02/16 11:35:21;;;;;;;11.82;2.70;;;12.40;99.90;;;;;;5031800;28;20116;-66
2022/02/16 11:38:02;;;;;;;11.70;4.82;;;12.30;99.90;;;;;;5061094;28;20057;-66
2022/02/16 11:40:51;;;;;;;8.27;2.88;;;12.40;99.90;;;;;;5025675;28;20149;-66
2022/02/16 11:43:41;;;;;;;12.88;3.08;;;12.50;99.90;;;;;;5035416;28;20095;-67
2022/02/16 11:46:08;;;;;;;10.27;2.70;;;12.40;99.90;;;;;;5042940;28;20583;-66
2022/02/16 11:48:43;;;;;;;10.30;3.03;;;12.60;99.90;;;;;;5063538;28;20052;-66
2022/02/16 11:51:25;;;;;;;9.68;2.65;;;12.60;99.90;;;;;;5012148;28;20060;-66
2022/02/16 11:53:54;;;;;;;11.93;2.80;;;12.50;99.90;;;;;;5039603;28;20045;-66
2022/02/16 11:56:22;;;;;;;9.67;2.80;;;12.60;99.90;;;;;;5032856;28;20061;-66
2022/02/16 11:59:17;;;;;;;9.57;2.45;;;12.40;99.90;;;;;;5066527;28;20302;-66
2022/02/16 12:02:04;;;;;;;9.80;3.78;;;12.50;99.90;;;;;;5045575;28;20044;-66
2022/02/16 12:04:31;;;;;;;12.85;2.90;;;12.50;99.90;;;;;;5069466;28;20056;-66
2022/02/16 12:07:32;;;;;;;9.95;2.35;;;12.30;99.90;;;;;;5062055;28;20056;-66
2022/02/16 12:10:17;;;;;;;8.68;2.92;;;12.40;99.90;;;;;;5076796;28;20051;-66
2022/02/16 12:12:45;;;;;;;10.23;2.63;;;12.30;99.90;;;;;;5070519;28;20074;-66
2022/02/16 12:15:12;;;;;;;11.88;3.30;;;12.30;99.90;;;;;;5078982;28;20105;-66
2022/02/16 12:17:38;;;;;;;8.70;2.35;;;12.30;99.90;;;;;;5114160;28;20036;-66
2022/02/16 12:20:06;;;;;;;13.85;3.22;;;12.30;99.90;;;;;;5083804;28;20460;-68
2022/02/16 12:22:39;;;;;;;12.52;2.88;;;12.30;99.90;;;;;;5112503;28;20048;-65
2022/02/16 12:25:15;;;;;;;10.60;2.47;;;12.10;99.90;;;;;;5089532;28;20459;-66
2022/02/16 12:27:45;;;;;;;12.15;3.10;;;12.20;99.90;;;;;;5078690;28;20053;-67
2022/02/16 12:30:11;;;;;;;12.32;2.95;;;12.20;99.90;;;;;;5064784;28;20048;-67
2022/02/16 12:32:37;;;;;;;11.40;3.03;;;12.10;99.90;;;;;;5084561;28;20108;-66
2022/02/16 12:35:04;;;;;;;13.77;2.83;;;12.10;99.90;;;;;;5068173;28;20069;-66
2022/02/16 12:37:30;;;;;;;13.40;3.60;;;12.00;99.90;;;;;;5081936;28;20036;-66
2022/02/16 12:40:10;;;;;;;12.50;2.90;;;11.90;99.90;;;;;;5090996;28;20036;-66
2022/02/16 12:42:42;;;;;;;14.18;3.72;;;12.00;99.90;;;;;;5070693;28;20040;-66
2022/02/16 12:45:09;;;;;;;11.77;2.97;;;12.00;99.90;;;;;;5090191;28;20283;-66
2022/02/16 12:47:35;;;;;;;14.63;2.83;;;11.90;99.90;;;;;;5075832;28;20051;-66
2022/02/16 12:50:08;;;;;;;15.25;3.38;;;12.00;99.90;;;;;;5076154;28;20078;-66